地図

経路データ

SID SEASON NUMBER BASIN SUBBASIN NAME ISO_TIME NATURE LAT LON WMO_WIND WMO_PRES WMO_AGENCY TRACK_TYPE DIST2LAND LANDFALL IFLAG USA_AGENCY USA_ATCF_ID USA_LAT USA_LON USA_RECORD USA_STATUS USA_WIND USA_PRES USA_SSHS USA_R34_NE USA_R34_SE USA_R34_SW USA_R34_NW USA_R50_NE USA_R50_SE USA_R50_SW USA_R50_NW USA_R64_NE USA_R64_SE USA_R64_SW USA_R64_NW USA_POCI USA_ROCI USA_RMW USA_EYE TOKYO_LAT TOKYO_LON TOKYO_GRADE TOKYO_WIND TOKYO_PRES TOKYO_R50_DIR TOKYO_R50_LONG TOKYO_R50_SHORT TOKYO_R30_DIR TOKYO_R30_LONG TOKYO_R30_SHORT TOKYO_LAND CMA_LAT CMA_LON CMA_CAT CMA_WIND CMA_PRES HKO_LAT HKO_LON HKO_CAT HKO_WIND HKO_PRES NEWDELHI_LAT NEWDELHI_LON NEWDELHI_GRADE NEWDELHI_WIND NEWDELHI_PRES NEWDELHI_CI NEWDELHI_DP NEWDELHI_POCI REUNION_LAT REUNION_LON REUNION_TYPE REUNION_WIND REUNION_PRES REUNION_TNUM REUNION_CI REUNION_RMW REUNION_R34_NE REUNION_R34_SE REUNION_R34_SW REUNION_R34_NW REUNION_R50_NE REUNION_R50_SE REUNION_R50_SW REUNION_R50_NW REUNION_R64_NE REUNION_R64_SE REUNION_R64_SW REUNION_R64_NW BOM_LAT BOM_LON BOM_TYPE BOM_WIND BOM_PRES BOM_TNUM BOM_CI BOM_RMW BOM_R34_NE BOM_R34_SE BOM_R34_SW BOM_R34_NW BOM_R50_NE BOM_R50_SE BOM_R50_SW BOM_R50_NW BOM_R64_NE BOM_R64_SE BOM_R64_SW BOM_R64_NW BOM_ROCI BOM_POCI BOM_EYE BOM_POS_METHOD BOM_PRES_METHOD NADI_LAT NADI_LON NADI_CAT NADI_WIND NADI_PRES WELLINGTON_LAT WELLINGTON_LON WELLINGTON_WIND WELLINGTON_PRES DS824_LAT DS824_LON DS824_STAGE DS824_WIND DS824_PRES TD9636_LAT TD9636_LON TD9636_STAGE TD9636_WIND TD9636_PRES TD9635_LAT TD9635_LON TD9635_WIND TD9635_PRES TD9635_ROCI NEUMANN_LAT NEUMANN_LON NEUMANN_CLASS NEUMANN_WIND NEUMANN_PRES MLC_LAT MLC_LON MLC_CLASS MLC_WIND MLC_PRES USA_GUST BOM_GUST BOM_GUST_PER REUNION_GUST REUNION_GUST_PER USA_SEAHGT USA_SEARAD_NE USA_SEARAD_SE USA_SEARAD_SW USA_SEARAD_NW STORM_SPEED STORM_DIR
1953213N20090 1953 34 NI BB NOT_NAMED 1953-07-31 18:00:00 TS 19.8000 89.6000 main 207 197 O________O____ jtwc_io IO061953 19.8000 89.6000 -1 19.8000 89.6000 TC 2 336
1953213N20090 1953 34 NI BB NOT_NAMED 1953-07-31 21:00:00 TS 19.9025 89.5575 main 197 183 P________P____ IO061953 19.9025 89.5575 -1 19.9025 89.5575 TC 2 333
1953213N20090 1953 34 NI BB NOT_NAMED 1953-08-01 00:00:00 TS 20.0000 89.5000 main 183 170 O________O____ jtwc_io IO061953 20.0000 89.5000 -1 20.0000 89.5000 TC 25 2 325
1953213N20090 1953 34 NI BB NOT_NAMED 1953-08-01 03:00:00 TS 20.0933 89.4133 main 170 157 P________PO___ IO061953 20.0925 89.4150 -1 20.0925 89.4150 TC 25 20.1000 89.4000 1 3 318
1953213N20090 1953 34 NI BB NOT_NAMED 1953-08-01 06:00:00 TS 20.2094 89.2975 main 157 145 O________OP___ jtwc_io IO061953 20.2000 89.3000 -1 20.2000 89.3000 TC 25 20.2470 89.2876 1 4 318
1953213N20090 1953 34 NI BB NOT_NAMED 1953-08-01 09:00:00 TS 20.3569 89.1610 main 134 123 P________PP___ IO061953 20.3425 89.1575 -1 20.3425 89.1575 TC 25 20.3952 89.1702 1 4 319
1953213N20090 1953 34 NI BB NOT_NAMED 1953-08-01 12:00:00 TS 20.5153 89.0142 main 123 100 O________OP___ jtwc_io IO061953 20.5000 89.0000 -1 20.5000 89.0000 TC 25 20.5458 89.0426 1 4 319
1953213N20090 1953 34 NI BB NOT_NAMED 1953-08-01 15:00:00 TS 20.6666 88.8716 main 100 90 P________PO___ IO061953 20.6500 88.8574 -1 20.6500 88.8574 TC 30 20.7000 88.9000 1 4 317
1953213N20090 1953 34 NI BB NOT_NAMED 1953-08-01 18:00:00 TS 20.8193 88.7120 main 91 67 O________OP___ jtwc_io IO061953 20.8000 88.7000 -1 20.8000 88.7000 TC 35 20.8578 88.7361 1 4 314
1953213N20090 1953 34 NI BB NOT_NAMED 1953-08-01 21:00:00 TS 20.9714 88.5332 main 67 55 P________PP___ IO061953 20.9499 88.5299 -1 20.9499 88.5299 TC 35 21.0144 88.5398 1 5 308
1953213N20090 1953 34 NI BB NOT_NAMED 1953-08-02 00:00:00 TS 21.1213 88.2995 main 55 39 O________OP___ jtwc_io IO061953 21.1000 88.3000 -1 21.1000 88.3000 TC 35 21.1639 88.2986 1 6 300
1953213N20090 1953 34 NI BB NOT_NAMED 1953-08-02 03:00:00 TS 21.2717 87.9867 main 39 30 P________PO___ IO061953 21.2575 87.9800 -1 21.2575 87.9800 TC 35 21.3000 88.0000 3 7 294
1953213N20090 1953 34 NI BB NOT_NAMED 1953-08-02 06:00:00 TS 21.4115 87.6163 main 30 11 O________OP___ jtwc_io IO061953 21.4000 87.6000 -1 21.4000 87.6000 TC 35 21.4346 87.6490 3 8 290
1953213N20090 1953 34 NI BB NOT_NAMED 1953-08-02 09:00:00 TS 21.5273 87.2284 main 10 0 P________PP___ IO061953 21.5148 87.2224 -1 21.5148 87.2224 TC 30 21.5523 87.2404 3 8 285
1953213N20090 1953 34 NI BB NOT_NAMED 1953-08-02 12:00:00 TS 21.6146 86.7955 main 0 0 O________OP___ jtwc_io IO061953 21.6000 86.8000 -1 21.6000 86.8000 TC 25 21.6438 86.7866 3 9 280
1953213N20090 1953 34 NI BB NOT_NAMED 1953-08-02 15:00:00 TS 21.6816 86.3150 main 0 0 P________PO___ IO061953 21.6724 86.3226 -1 21.6724 86.3226 TC 25 21.7000 86.3000 1 9 275
1953213N20090 1953 34 NI BB NOT_NAMED 1953-08-02 18:00:00 TS 21.6983 85.7982 main 0 0 O________OP___ jtwc_io IO061953 21.7000 85.8000 -1 21.7000 85.8000 TC 25 21.6948 85.7947 1 10 269
1953213N20090 1953 34 NI BB NOT_NAMED 1953-08-02 21:00:00 TS 21.6575 85.2544 main 0 0 P________PP___ IO061953 21.6575 85.2498 -1 21.6575 85.2498 TC 25 21.6576 85.2637 1 10 265
1953213N20090 1953 34 NI BB NOT_NAMED 1953-08-03 00:00:00 TS 21.6055 84.7086 main 0 0 O________OP___ jtwc_io IO061953 21.6000 84.7000 -1 21.6000 84.7000 TC 25 21.6166 84.7259 1 10 266
1953213N20090 1953 34 NI BB NOT_NAMED 1953-08-03 03:00:00 TS 21.5849 84.1900 main 0 0 P________PO___ IO061953 21.5773 84.1849 -1 21.5773 84.1849 TC 25 21.6000 84.2000 1 9 270
1953213N20090 1953 34 NI BB NOT_NAMED 1953-08-03 06:00:00 TS 21.6085 83.7008 main 0 0 O________OP___ jtwc_io IO061953 21.6000 83.7000 -1 21.6000 83.7000 TC 25 21.6255 83.7024 1 9 276
1953213N20090 1953 34 NI BB NOT_NAMED 1953-08-03 09:00:00 TS 21.6788 83.2399 main 0 0 P________PP___ IO061953 21.6773 83.2500 -1 21.6773 83.2500 TC 25 21.6820 83.2198 1 9 282
1953213N20090 1953 34 NI BB NOT_NAMED 1953-08-03 12:00:00 TS 21.7908 82.7841 main 0 0 O________OP___ jtwc_io IO061953 21.8000 82.8000 -1 21.8000 82.8000 TC 25 21.7724 82.7522 1 9 286
1953213N20090 1953 34 NI BB NOT_NAMED 1953-08-03 15:00:00 TS 21.9234 82.2950 main 0 0 P________PO___ IO061953 21.9350 82.2925 -1 21.9350 82.2925 TC 25 21.9000 82.3000 1 10 288
1953213N20090 1953 34 NI BB NOT_NAMED 1953-08-03 18:00:00 TS 22.0907 81.8083 main 0 0 O________OP___ jtwc_io IO061953 22.1000 81.8000 -1 22.1000 81.8000 TC 25 22.0722 81.8247 1 9 293
1953213N20090 1953 34 NI BB NOT_NAMED 1953-08-03 21:00:00 TS 22.2924 81.3745 main 0 0 P________PP___ IO061953 22.2998 81.3775 -1 22.2998 81.3775 TC 25 22.2777 81.3684 1 9 298
1953213N20090 1953 34 NI BB NOT_NAMED 1953-08-04 00:00:00 TS 22.4981 80.9843 main 0 0 O________OP___ jtwc_io IO061953 22.5000 81.0000 -1 22.5000 81.0000 TC 25 22.4942 80.9528 1 8 298
1953213N20090 1953 34 NI BB NOT_NAMED 1953-08-04 03:00:00 TS 22.6717 80.6133 main 0 0 P________PO___ IO061953 22.6575 80.6199 -1 22.6575 80.6199 TC 25 22.7000 80.6000 1 7 297
1953213N20090 1953 34 NI BB NOT_NAMED 1953-08-04 06:00:00 TS 22.8213 80.3075 main 0 0 O________OP___ jtwc_io IO061953 22.8000 80.3000 -1 22.8000 80.3000 TC 25 22.8638 80.3226 1 6 301
1953213N20090 1953 34 NI BB NOT_NAMED 1953-08-04 09:00:00 TS 22.9714 80.0781 main 0 0 P________PP___ IO061953 22.9499 80.0624 -1 22.9499 80.0624 TC 25 23.0143 80.1093 1 5 309
1953213N20090 1953 34 NI BB NOT_NAMED 1953-08-04 12:00:00 TS 23.1192 79.9138 main 0 0 O________OP___ jtwc_io IO061953 23.1000 79.9000 -1 23.1000 79.9000 TC 25 23.1577 79.9415 1 4 319
1953213N20090 1953 34 NI BB NOT_NAMED 1953-08-04 15:00:00 TS 23.2666 79.7949 main 0 0 P________PO___ IO061953 23.2499 79.7924 -1 23.2499 79.7924 TC 25 23.3000 79.8000 1 4 325
1953213N20090 1953 34 NI BB NOT_NAMED 1953-08-04 18:00:00 TS 23.4183 79.6875 main 0 0 O________OP___ jtwc_io IO061953 23.4000 79.7000 -1 23.4000 79.7000 TC 25 23.4459 79.6687 1 4 324
1953213N20090 1953 34 NI BB NOT_NAMED 1953-08-04 21:00:00 TS 23.5695 79.5556 main 0 0 P________PP___ IO061953 23.5501 79.5651 -1 23.5501 79.5651 TC 25 23.5953 79.5429 1 4 320
1953213N20090 1953 34 NI BB NOT_NAMED 1953-08-05 00:00:00 TS 23.7235 79.4103 main 0 0 O________OP___ jtwc_io IO061953 23.7000 79.4000 -1 23.7000 79.4000 TC 25 23.7471 79.4206 1 4 325
1953213N20090 1953 34 NI BB NOT_NAMED 1953-08-05 03:00:00 NR 23.9000 79.3000 main 0 __________O___ IO061953 -1 TC 23.9000 79.3000 1 4 331

IBTrACS Databaseについて

本データベースは、米国NOAAが公開する1842年以降の世界の熱帯低気圧のベストトラックデータアーカイブInternational Best Track Archive for Climate Stewardship (IBTrACS)を、ウェブで閲覧しやすい形式に変換したものです。

最終更新日:2021-11-26